Time;durP1;ratioP1;P1;durP2;ratioP2;P2;SDS_P1;SDS_P2;PMS_P1;PMS_P2;Temp;Humidity;BMP_temperature;BMP_pressure;BME280_temperature;BME280_humidity;BME280_pressure;Samples;Min_cycle;Max_cycle;Signal;HPM_P1;HPM_P2
2021/01/17 00:01:45;;;;;;;14.98;6.28;;;;;;;-3.38;77.77;99561.72;5093368;28;20044;-69
2021/01/17 00:04:13;;;;;;;15.82;6.63;;;;;;;-3.50;78.25;99561.94;5093442;28;20072;-68
2021/01/17 00:06:40;;;;;;;13.18;6.03;;;;;;;-3.63;78.27;99553.75;5093297;28;20040;-68
2021/01/17 00:09:08;;;;;;;12.80;5.75;;;;;;;-3.64;78.45;99557.00;5093464;28;20044;-69
2021/01/17 00:11:36;;;;;;;13.55;5.75;;;;;;;-3.78;78.22;99533.00;5093299;28;20052;-68
2021/01/17 00:14:04;;;;;;;17.75;6.30;;;;;;;-3.58;78.17;99552.38;5093381;28;20055;-69
2021/01/17 00:16:32;;;;;;;15.60;7.28;;;;;;;-3.54;78.57;99557.59;5093272;28;20425;-68
2021/01/17 00:19:01;;;;;;;16.10;6.82;;;;;;;-3.41;78.61;99547.47;5093318;28;20044;-69
2021/01/17 00:21:28;;;;;;;17.65;7.18;;;;;;;-3.43;78.35;99553.13;5093295;28;20075;-68
2021/01/17 00:23:56;;;;;;;16.88;7.80;;;;;;;-3.48;78.79;99554.56;5093208;28;20054;-69
2021/01/17 00:26:23;;;;;;;16.23;8.23;;;;;;;-3.40;78.45;99554.19;5093153;28;20486;-68
2021/01/17 00:28:51;;;;;;;20.40;7.93;;;;;;;-3.34;78.71;99558.63;5093166;28;20040;-68
2021/01/17 00:31:22;;;;;;;19.00;7.57;;;;;;;-3.30;78.37;99550.50;5093275;28;20051;-68
2021/01/17 00:34:02;;;;;;;16.13;6.75;;;;;;;-3.70;78.39;99491.91;5093570;28;20048;-69
2021/01/17 00:36:41;;;;;;;15.85;7.13;;;;;;;-3.42;78.35;99552.38;5093488;28;20061;-69
2021/01/17 00:39:21;;;;;;;19.17;6.68;;;;;;;-3.43;78.11;99555.63;5093160;28;20047;-69
2021/01/17 00:41:49;;;;;;;14.65;6.60;;;;;;;-3.35;78.61;99546.94;5093097;28;20048;-68
2021/01/17 00:44:28;;;;;;;13.65;6.32;;;;;;;-3.29;78.61;99547.25;5095738;28;20052;-69
2021/01/17 00:47:06;;;;;;;14.73;6.35;;;;;;;-3.32;78.59;99534.63;5096712;28;20052;-68
2021/01/17 00:49:44;;;;;;;12.90;5.97;;;;;;;-3.19;78.22;99544.41;5096520;28;20044;-69
2021/01/17 00:52:21;;;;;;;15.25;6.88;;;;;;;-3.18;78.20;99545.28;5095479;28;20058;-69
2021/01/17 00:54:52;;;;;;;15.55;7.05;;;;;;;-3.22;77.89;99544.28;5095338;28;20545;-69
2021/01/17 00:57:23;;;;;;;19.17;6.75;;;;;;;-3.21;77.77;99540.13;5096507;28;20051;-69
2021/01/17 00:59:53;;;;;;;13.48;6.07;;;;;;;-3.20;78.14;99537.75;5096387;28;20440;-69
2021/01/17 01:02:24;;;;;;;13.77;6.45;;;;;;;-3.21;78.14;99536.00;5095242;28;20074;-69
2021/01/17 01:04:56;;;;;;;14.10;5.85;;;;;;;-3.20;78.12;99540.22;5096296;28;20052;-69
2021/01/17 01:07:27;;;;;;;13.10;6.13;;;;;;;-3.27;77.89;99530.72;5096253;28;20128;-68
2021/01/17 01:10:07;;;;;;;13.27;6.00;;;;;;;-3.28;77.75;99533.13;5096418;28;20138;-70
2021/01/17 01:12:35;;;;;;;19.23;7.03;;;;;;;-3.27;77.84;99525.72;5096221;28;20052;-69
2021/01/17 01:15:04;;;;;;;17.77;6.53;;;;;;;-3.28;77.81;99523.13;5096057;28;20052;-68
2021/01/17 01:17:35;;;;;;;16.00;6.72;;;;;;;-3.39;77.90;99495.19;5096335;28;20040;-69
2021/01/17 01:20:07;;;;;;;15.30;6.45;;;;;;;-3.19;77.68;99519.47;5096041;28;20493;-69
2021/01/17 01:22:45;;;;;;;16.30;7.00;;;;;;;-3.14;77.76;99518.06;5095993;28;20105;-69
2021/01/17 01:25:25;;;;;;;16.52;7.15;;;;;;;-3.54;77.47;99447.00;5096035;28;20391;-68
2021/01/17 01:27:55;;;;;;;;;;;;;;;-3.12;77.46;99516.50;5096193;28;20044;-69
2021/01/17 01:30:33;;;;;;;13.23;5.43;;;;;;;-3.13;77.75;99509.81;5095938;28;19924;-69
2021/01/17 01:33:03;;;;;;;15.50;7.00;;;;;;;-3.17;77.85;99507.97;5095975;28;20052;-68
2021/01/17 01:35:32;;;;;;;14.23;6.82;;;;;;;-3.20;77.64;99515.28;5095720;28;20079;-69
2021/01/17 01:38:12;;;;;;;17.15;6.80;;;;;;;-3.20;78.27;99502.81;5096002;28;20044;-68
2021/01/17 01:40:53;;;;;;;13.80;5.88;;;;;;;-3.28;78.30;99504.03;5095786;28;20063;-69
2021/01/17 01:43:24;;;;;;;17.20;6.75;;;;;;;-3.26;78.39;99501.66;5095864;28;20044;-69
2021/01/17 01:45:55;;;;;;;18.02;6.68;;;;;;;-3.27;78.81;99495.81;5094602;28;20398;-68
2021/01/17 01:48:30;;;;;;;13.88;6.30;;;;;;;-3.31;78.35;99483.09;5095393;28;20044;-68
2021/01/17 01:51:06;;;;;;;14.82;6.95;;;;;;;-3.36;78.71;99485.38;5095492;28;20127;-68
2021/01/17 01:53:45;;;;;;;18.02;7.30;;;;;;;-3.60;78.64;99464.16;5094901;28;20062;-69
2021/01/17 01:56:16;;;;;;;15.90;7.53;;;;;;;-3.40;78.18;99488.47;5095175;28;20036;-68
2021/01/17 01:58:55;;;;;;;16.00;6.88;;;;;;;-3.36;78.64;99479.50;5095593;28;20378;-68
2021/01/17 02:01:26;;;;;;;16.73;6.32;;;;;;;-3.33;78.52;99475.50;5095292;28;20489;-68
2021/01/17 02:04:05;;;;;;;15.30;6.50;;;;;;;-3.35;78.45;99471.22;5095233;28;20503;-68
2021/01/17 02:06:34;;;;;;;15.35;6.70;;;;;;;-3.44;78.29;99471.63;5095345;28;20429;-69
2021/01/17 02:09:15;;;;;;;15.75;6.18;;;;;;;-3.53;78.22;99468.69;5095098;28;20052;-69
2021/01/17 02:12:15;;;;;;;14.18;6.60;;;;;;;-3.63;77.97;99477.34;5095167;28;20044;-69
2021/01/17 02:14:53;;;;;;;15.80;6.50;;;;;;;-3.65;78.42;99470.56;5095304;28;20052;-68
2021/01/17 02:17:34;;;;;;;17.40;6.38;;;;;;;-3.63;78.61;99473.97;5095046;28;20556;-68
2021/01/17 02:20:11;;;;;;;14.60;6.20;;;;;;;-4.04;78.28;99434.47;5094910;28;20055;-69
2021/01/17 02:22:58;;;;;;;15.60;6.65;;;;;;;-3.87;78.50;99472.72;5094967;28;20098;-68
2021/01/17 02:25:39;;;;;;;12.10;5.85;;;;;;;-3.80;78.48;99469.75;5094811;28;20059;-68
2021/01/17 02:28:16;;;;;;;16.77;6.22;;;;;;;-3.89;78.64;99465.16;5094688;28;20444;-68
2021/01/17 02:30:54;;;;;;;13.05;5.55;;;;;;;-3.96;78.35;99459.78;5094694;28;20048;-69
2021/01/17 02:33:25;;;;;;;12.80;5.30;;;;;;;-4.11;78.61;99449.88;5094995;28;20059;-67
2021/01/17 02:36:20;;;;;;;15.40;6.82;;;;;;;-4.01;78.97;99457.06;5094668;28;20407;-68
2021/01/17 02:39:06;;;;;;;15.80;6.60;;;;;;;-3.97;79.03;99460.53;5095198;28;20402;-68
2021/01/17 02:41:43;;;;;;;16.48;6.88;;;;;;;-4.09;78.80;99454.16;5094453;28;20485;-67
2021/01/17 02:44:24;;;;;;;15.02;6.22;;;;;;;-4.03;78.84;99450.28;5094816;28;20040;-68
2021/01/17 02:46:51;;;;;;;11.82;4.85;;;;;;;-4.00;79.17;99446.28;5094316;28;20085;-68
2021/01/17 02:49:20;;;;;;;14.93;5.80;;;;;;;-4.17;78.76;99405.56;5094437;28;20083;-68
2021/01/17 02:51:54;;;;;;;17.25;6.03;;;;;;;-3.97;78.99;99441.47;5094283;28;20525;-68
2021/01/17 02:54:30;;;;;;;15.20;6.07;;;;;;;-4.03;78.74;99430.34;5094137;28;20508;-68
2021/01/17 02:57:04;;;;;;;19.67;6.55;;;;;;;-4.40;79.15;99368.63;5094268;28;20051;-68
2021/01/17 02:59:35;;;;;;;12.15;5.95;;;;;;;-3.92;78.67;99434.22;5094570;28;20124;-67
2021/01/17 03:02:04;;;;;;;16.35;6.53;;;;;;;-4.13;78.98;99404.09;5094151;28;20047;-68
2021/01/17 03:04:47;;;;;;;16.02;6.90;;;;;;;-4.03;79.02;99417.88;5094097;28;20044;-68
2021/01/17 03:07:15;;;;;;;16.98;6.45;;;;;;;-3.85;78.83;99428.78;5093827;28;20048;-68
2021/01/17 03:09:45;;;;;;;14.35;7.30;;;;;;;-3.85;79.25;99426.28;5094022;28;20493;-68
2021/01/17 03:12:13;;;;;;;13.65;6.43;;;;;;;-3.98;78.64;99433.94;5093933;28;20144;-68
2021/01/17 03:14:43;;;;;;;18.17;6.30;;;;;;;-3.91;78.83;99438.44;5094013;28;20052;-67
2021/01/17 03:17:11;;;;;;;15.27;6.57;;;;;;;-3.90;78.77;99437.66;5093894;28;20048;-67
2021/01/17 03:19:39;;;;;;;17.35;6.38;;;;;;;-3.96;78.92;99435.72;5093933;28;20504;-67
2021/01/17 03:22:08;;;;;;;13.05;5.65;;;;;;;-4.03;78.75;99410.41;5093791;28;20080;-67
2021/01/17 03:24:36;;;;;;;15.50;5.85;;;;;;;-3.81;78.68;99420.66;5093813;28;20048;-68
2021/01/17 03:27:05;;;;;;;16.33;6.75;;;;;;;-3.71;78.53;99441.19;5093719;28;20052;-68
2021/01/17 03:29:33;;;;;;;23.13;8.45;;;;;;;-3.77;78.22;99430.91;5093731;28;20401;-68
2021/01/17 03:32:01;;;;;;;39.13;12.45;;;;;;;-3.74;78.68;99436.03;5093775;28;20123;-68
2021/01/17 03:34:29;;;;;;;96.95;25.95;;;;;;;-3.70;78.54;99432.06;5093671;28;20078;-67
2021/01/17 03:36:57;;;;;;;54.15;16.88;;;;;;;-3.79;78.58;99434.09;5093678;28;20046;-67
2021/01/17 03:39:25;;;;;;;26.27;9.05;;;;;;;-3.94;78.51;99426.69;5093573;28;20382;-68
2021/01/17 03:41:53;;;;;;;21.70;8.53;;;;;;;-3.88;78.48;99431.97;5093646;28;20055;-67
2021/01/17 03:44:21;;;;;;;19.40;7.28;;;;;;;-3.80;78.36;99434.88;5093591;28;20280;-68
2021/01/17 03:46:50;;;;;;;23.88;8.38;;;;;;;-3.82;78.45;99432.31;5093540;28;20044;-67
2021/01/17 03:49:18;;;;;;;18.02;6.97;;;;;;;-3.82;78.44;99426.47;5093555;28;20052;-67
2021/01/17 03:51:46;;;;;;;15.73;6.40;;;;;;;-3.95;78.52;99415.00;5093578;28;20083;-67
2021/01/17 03:54:13;;;;;;;12.80;6.20;;;;;;;-3.90;78.16;99412.72;5093304;28;20417;-69
2021/01/17 03:56:41;;;;;;;19.00;7.70;;;;;;;-3.89;78.36;99419.44;5093530;28;20044;-67
2021/01/17 03:59:08;;;;;;;15.73;7.05;;;;;;;-3.78;78.38;99420.84;5093450;28;20139;-69
2021/01/17 04:01:36;;;;;;;17.88;7.15;;;;;;;-3.75;78.45;99411.03;5092300;28;20044;-68
2021/01/17 04:04:05;;;;;;;15.05;7.07;;;;;;;-3.73;78.17;99414.44;5093440;28;20512;-68
2021/01/17 04:06:35;;;;;;;17.88;7.13;;;;;;;-3.73;78.48;99411.97;5093415;28;20489;-68
2021/01/17 04:09:03;;;;;;;20.63;7.97;;;;;;;-3.75;78.49;99413.53;5093334;28;20071;-68
2021/01/17 04:11:31;;;;;;;20.85;9.70;;;;;;;-3.71;78.16;99411.25;5093338;28;20076;-68
2021/01/17 04:13:59;;;;;;;27.25;11.77;;;;;;;-3.69;78.17;99403.84;5093371;28;20048;-69
2021/01/17 04:16:27;;;;;;;17.15;7.88;;;;;;;-3.65;78.06;99401.63;5093287;28;20052;-68
2021/01/17 04:18:55;;;;;;;14.63;6.32;;;;;;;-3.66;77.87;99404.00;5095552;28;20052;-69
2021/01/17 04:21:23;;;;;;;14.40;6.25;;;;;;;-3.59;77.46;99406.03;5097492;28;20135;-68
2021/01/17 04:23:51;;;;;;;15.50;7.25;;;;;;;-3.56;77.66;99401.19;5097133;28;20078;-68
2021/01/17 04:26:19;;;;;;;18.13;7.18;;;;;;;-3.51;77.49;99400.66;5097357;28;20076;-68
2021/01/17 04:28:47;;;;;;;14.95;7.47;;;;;;;-3.75;77.01;99351.22;5096989;28;20051;-68
2021/01/17 04:31:15;;;;;;;12.93;6.32;;;;;;;-3.42;76.75;99403.59;5096934;28;20485;-68
2021/01/17 04:33:43;;;;;;;15.20;6.65;;;;;;;-3.39;76.39;99407.88;5096980;28;20408;-68
2021/01/17 04:36:10;;;;;;;13.45;6.15;;;;;;;-3.38;76.46;99404.59;5096944;28;20490;-69
2021/01/17 04:38:39;;;;;;;12.10;5.35;;;;;;;-3.40;76.24;99406.16;5096877;28;20123;-69
2021/01/17 04:41:13;;;;;;;14.93;6.70;;;;;;;-3.38;76.11;99393.78;5096835;28;20055;-69
2021/01/17 04:43:56;;;;;;;14.07;5.93;;;;;;;-3.32;76.41;99407.41;5095529;28;20409;-68
2021/01/17 04:46:26;;;;;;;11.32;6.15;;;;;;;-3.32;76.27;99409.91;5095876;28;20493;-68
2021/01/17 04:48:58;;;;;;;17.02;6.68;;;;;;;-3.49;75.99;99373.28;5096572;28;20382;-69
2021/01/17 04:51:28;;;;;;;14.73;5.65;;;;;;;-3.40;75.94;99381.22;5096962;28;20044;-68
2021/01/17 04:53:59;;;;;;;14.60;6.57;;;;;;;-3.48;75.89;99370.88;5096507;28;20052;-68
2021/01/17 04:56:29;;;;;;;13.43;5.78;;;;;;;-3.30;76.13;99395.84;5096551;28;20440;-67
2021/01/17 04:59:12;;;;;;;12.37;4.90;;;;;;;-3.33;75.49;99400.69;5096439;28;20489;-68
2021/01/17 05:01:53;;;;;;;11.77;5.40;;;;;;;-3.33;75.53;99397.34;5095388;28;20375;-68
2021/01/17 05:04:46;;;;;;;11.32;5.85;;;;;;;-3.39;75.76;99395.41;5096355;28;20097;-68
2021/01/17 05:07:17;;;;;;;14.43;5.95;;;;;;;-3.42;76.05;99407.72;5096290;28;20043;-67
2021/01/17 05:09:54;;;;;;;12.48;5.32;;;;;;;-3.32;75.45;99402.41;5096244;28;20131;-68
2021/01/17 05:12:29;;;;;;;13.88;5.88;;;;;;;-3.32;75.97;99407.41;5096580;28;20063;-67
2021/01/17 05:14:57;;;;;;;13.95;5.95;;;;;;;-3.38;75.51;99417.91;5096121;28;20055;-67
2021/01/17 05:17:26;;;;;;;15.05;6.32;;;;;;;-3.51;75.36;99419.75;5096412;28;20091;-68
2021/01/17 05:19:53;;;;;;;12.73;5.65;;;;;;;-3.51;76.00;99419.75;5096335;28;20131;-68
2021/01/17 05:22:21;;;;;;;11.20;5.53;;;;;;;-3.53;75.72;99417.16;5096063;28;20462;-67
2021/01/17 05:24:53;;;;;;;13.82;6.05;;;;;;;-3.41;75.45;99414.44;5095926;28;20444;-68
2021/01/17 05:27:21;;;;;;;14.50;6.55;;;;;;;-3.32;75.96;99422.38;5095904;28;20075;-68
2021/01/17 05:29:48;;;;;;;14.95;6.35;;;;;;;-3.38;76.07;99417.06;5094863;28;20055;-67
2021/01/17 05:32:16;;;;;;;15.38;6.25;;;;;;;-3.64;75.92;99387.47;5095827;28;20044;-68
2021/01/17 05:34:44;;;;;;;12.55;5.78;;;;;;;-3.43;76.43;99418.47;5095726;28;20052;-67
2021/01/17 05:37:14;;;;;;;12.75;6.43;;;;;;;-3.44;76.58;99416.78;5095738;28;20044;-67
2021/01/17 05:39:58;;;;;;;15.73;6.63;;;;;;;-3.44;76.46;99416.78;5096254;28;20067;-68
2021/01/17 05:42:27;;;;;;;12.95;5.70;;;;;;;-3.45;76.75;99420.03;5095958;28;20455;-70
2021/01/17 05:45:09;;;;;;;12.13;5.72;;;;;;;-3.41;76.13;99415.28;5095637;28;20063;-68
2021/01/17 05:47:37;;;;;;;13.73;5.75;;;;;;;-3.35;76.35;99407.25;5095455;28;20048;-67
2021/01/17 05:50:07;;;;;;;13.55;6.20;;;;;;;-3.36;76.05;99410.53;5095491;28;20067;-67
2021/01/17 05:52:36;;;;;;;14.57;5.93;;;;;;;-3.36;75.62;99410.53;5095232;28;20048;-69
2021/01/17 05:55:06;;;;;;;11.35;5.60;;;;;;;-3.38;76.15;99417.91;5095727;28;20128;-68
2021/01/17 05:57:35;;;;;;;15.25;6.72;;;;;;;-3.41;76.09;99416.94;5095344;28;20048;-68
2021/01/17 06:00:05;;;;;;;15.13;6.63;;;;;;;-3.59;75.73;99378.59;5095269;28;20579;-67
2021/01/17 06:02:40;;;;;;;12.23;5.90;;;;;;;-3.41;75.62;99411.94;5095182;28;20047;-68
2021/01/17 06:05:11;;;;;;;13.88;5.65;;;;;;;-3.45;75.35;99417.53;5095201;28;20406;-67
2021/01/17 06:07:47;;;;;;;15.02;6.13;;;;;;;-3.45;75.72;99420.03;5094038;28;20042;-68
2021/01/17 06:10:22;;;;;;;16.27;6.20;;;;;;;-3.45;75.44;99430.00;5095156;28;20079;-68
2021/01/17 06:12:51;;;;;;;22.10;8.27;;;;;;;-3.56;75.67;99424.50;5095015;28;20058;-69
2021/01/17 06:15:19;;;;;;;14.10;6.25;;;;;;;-3.65;75.21;99430.66;5095004;28;20101;-68
2021/01/17 06:17:48;;;;;;;13.30;5.70;;;;;;;-3.72;75.29;99438.63;5094909;28;20044;-68
2021/01/17 06:20:25;;;;;;;12.50;5.40;;;;;;;-3.84;75.25;99433.00;5094857;28;20059;-68
2021/01/17 06:22:56;;;;;;;12.05;5.53;;;;;;;-3.87;75.31;99437.81;5095090;28;20490;-67
2021/01/17 06:25:29;;;;;;;11.30;5.30;;;;;;;-3.90;75.17;99442.63;5095025;28;20516;-67
2021/01/17 06:28:08;;;;;;;14.77;6.07;;;;;;;-3.96;75.51;99437.34;5094976;28;20044;-68
2021/01/17 06:30:37;;;;;;;12.95;5.63;;;;;;;-3.95;75.82;99437.41;5094792;28;20156;-67
2021/01/17 06:33:20;;;;;;;11.13;5.60;;;;;;;-3.88;75.59;99446.94;5095278;28;20060;-68
2021/01/17 06:36:11;;;;;;;15.82;6.25;;;;;;;-3.90;75.85;99447.63;5094650;28;20063;-67
2021/01/17 06:38:39;;;;;;;14.65;5.75;;;;;;;-4.10;75.42;99449.06;5094891;28;20089;-67
2021/01/17 06:41:09;;;;;;;12.35;5.57;;;;;;;-4.38;75.28;99461.69;5094375;28;20048;-67
2021/01/17 06:43:43;;;;;;;12.97;5.13;;;;;;;-4.69;75.45;99448.38;5093215;28;20044;-68
2021/01/17 06:46:13;;;;;;;11.93;5.07;;;;;;;-4.73;75.53;99470.50;5094531;28;20079;-70
2021/01/17 06:48:41;;;;;;;55.47;22.25;;;;;;;-4.77;75.14;99479.44;5094347;28;20055;-68
2021/01/17 06:51:17;;;;;;;169.73;43.83;;;;;;;-4.78;75.56;99472.75;5094399;28;20127;-70
2021/01/17 06:53:53;;;;;;;43.67;17.02;;;;;;;-4.84;75.87;99482.34;5094111;28;20071;-69
2021/01/17 06:56:22;;;;;;;20.58;7.32;;;;;;;-4.92;75.84;99461.19;5094255;28;20048;-70
2021/01/17 06:59:00;;;;;;;19.05;8.27;;;;;;;-4.69;75.60;99498.13;5094319;28;20075;-69
2021/01/17 07:01:43;;;;;;;11.23;4.85;;;;;;;-4.72;75.54;99497.09;5094224;28;20101;-70
2021/01/17 07:04:25;;;;;;;12.23;6.18;;;;;;;-4.66;75.73;99500.81;5094202;28;20517;-69
2021/01/17 07:07:10;;;;;;;17.60;6.65;;;;;;;-4.57;75.71;99498.81;5094118;28;20055;-70
2021/01/17 07:09:49;;;;;;;14.93;6.50;;;;;;;-4.54;75.30;99503.97;5094053;28;20118;-70
2021/01/17 07:12:27;;;;;;;15.75;7.10;;;;;;;-4.41;75.54;99501.38;5094043;28;20058;-70
2021/01/17 07:15:08;;;;;;;18.25;7.35;;;;;;;-4.40;76.12;99492.28;5094302;28;20084;-65
2021/01/17 07:17:37;;;;;;;17.88;7.25;;;;;;;-4.35;75.92;99505.84;5093928;28;20043;-68
2021/01/17 07:20:13;;;;;;;19.88;7.85;;;;;;;-4.69;75.37;99488.19;5093989;28;20134;-66
2021/01/17 07:22:43;;;;;;;20.38;8.20;;;;;;;-4.50;75.45;99513.31;5093893;28;20075;-68
2021/01/17 07:25:24;;;;;;;17.75;6.95;;;;;;;-4.75;75.46;99532.63;5094284;28;20508;-69
2021/01/17 07:28:08;;;;;;;19.17;6.90;;;;;;;-4.86;75.56;99528.69;5093686;28;20062;-69
2021/01/17 07:31:07;;;;;;;18.77;7.45;;;;;;;-4.88;75.70;99517.78;5093839;28;20052;-69
2021/01/17 07:33:47;;;;;;;22.83;7.90;;;;;;;-4.78;76.14;99530.00;5094176;28;20044;-69
2021/01/17 07:36:22;;;;;;;16.05;7.43;;;;;;;-4.77;76.14;99534.19;5093693;28;20493;-68
2021/01/17 07:38:55;;;;;;;17.10;6.97;;;;;;;-4.82;75.73;99520.59;5093706;28;20067;-68
2021/01/17 07:41:28;;;;;;;19.08;7.13;;;;;;;-4.72;75.76;99530.31;5093732;28;20044;-68
2021/01/17 07:44:00;;;;;;;17.55;7.50;;;;;;;-4.73;76.04;99536.09;5093621;28;20047;-70
2021/01/17 07:46:31;;;;;;;21.08;9.82;;;;;;;-4.34;75.92;99533.31;5093705;28;20514;-68
2021/01/17 07:49:03;;;;;;;19.20;7.18;;;;;;;-4.02;75.61;99531.69;5093573;28;20070;-68
2021/01/17 07:51:31;;;;;;;17.25;7.75;;;;;;;-3.95;75.58;99526.25;5093653;28;20048;-69
2021/01/17 07:54:04;;;;;;;23.33;9.98;;;;;;;-3.88;74.72;99538.28;5096733;28;20052;-69
2021/01/17 07:56:35;;;;;;;25.60;10.82;;;;;;;-3.67;74.33;99534.44;5097759;28;20064;-68
2021/01/17 07:59:08;;;;;;;24.95;10.30;;;;;;;-3.50;74.74;99542.00;5097614;28;20036;-68
2021/01/17 08:01:47;;;;;;;23.42;9.45;;;;;;;-3.29;74.41;99532.28;5097711;28;20567;-69
2021/01/17 08:04:29;;;;;;;21.13;8.77;;;;;;;-3.02;73.23;99533.66;5097602;28;20051;-69
2021/01/17 08:07:02;;;;;;;22.17;10.85;;;;;;;-2.96;73.63;99533.97;5097553;28;20040;-69
2021/01/17 08:09:46;;;;;;;35.95;14.90;;;;;;;-2.81;73.26;99523.88;5096316;28;20486;-69
2021/01/17 08:12:30;;;;;;;54.35;19.83;;;;;;;-2.58;72.23;99525.84;5097454;28;20095;-68
2021/01/17 08:15:17;;;;;;;33.42;13.88;;;;;;;-2.33;71.88;99520.38;5097541;28;20512;-67
2021/01/17 08:17:45;;;;;;;48.80;17.27;;;;;;;-2.03;71.85;99537.66;5097307;28;20524;-67
2021/01/17 08:20:27;;;;;;;42.53;16.67;;;;;;;-1.85;71.30;99532.66;5097244;28;20500;-68
2021/01/17 08:23:12;;;;;;;29.92;13.32;;;;;;;-2.12;70.90;99502.25;5097267;28;20406;-68
2021/01/17 08:25:57;;;;;;;32.15;14.10;;;;;;;-1.79;70.07;99532.91;5097484;28;20044;-66
2021/01/17 08:28:40;;;;;;;36.75;15.05;;;;;;;-1.83;69.36;99538.56;5097056;28;20120;-66
2021/01/17 08:31:40;;;;;;;26.83;12.70;;;;;;;-1.92;68.96;99540.63;5097081;28;20048;-68
2021/01/17 08:34:26;;;;;;;27.67;12.50;;;;;;;-1.70;68.56;99543.31;5097064;28;20052;-67
2021/01/17 08:37:16;;;;;;;25.02;11.98;;;;;;;-1.72;68.53;99549.91;5096937;28;20055;-67
2021/01/17 08:39:55;;;;;;;27.17;11.93;;;;;;;-1.57;67.99;99554.75;5096967;28;20043;-68
2021/01/17 08:42:35;;;;;;;24.25;12.80;;;;;;;-1.47;68.16;99560.25;5096923;28;20044;-65
2021/01/17 08:45:35;;;;;;;24.80;12.35;;;;;;;-1.29;67.72;99564.31;5096791;28;20109;-66
2021/01/17 08:48:22;;;;;;;27.92;11.50;;;;;;;-1.10;67.02;99559.31;5096682;28;20075;-66
2021/01/17 08:50:51;;;;;;;24.52;11.73;;;;;;;-1.02;67.07;99568.03;5096938;28;20547;-65
2021/01/17 08:53:30;;;;;;;24.75;12.50;;;;;;;-1.03;66.47;99572.16;5096420;28;20056;-65
2021/01/17 08:56:19;;;;;;;25.63;12.65;;;;;;;-1.00;66.42;99571.44;5096881;28;20539;-64
2021/01/17 08:58:52;;;;;;;26.02;12.27;;;;;;;-0.81;66.18;99573.94;5096544;28;20051;-66
2021/01/17 09:01:22;;;;;;;22.85;11.65;;;;;;;-0.67;65.65;99580.38;5096433;28;20051;-66
2021/01/17 09:03:53;;;;;;;22.25;10.65;;;;;;;-0.60;65.25;99577.31;5096064;28;20044;-67
2021/01/17 09:06:42;;;;;;;20.42;10.30;;;;;;;-0.52;65.21;99582.66;5096611;28;20456;-65
2021/01/17 09:09:15;;;;;;;19.55;9.45;;;;;;;-0.90;64.73;99583.56;5096302;28;20517;-66
2021/01/17 09:11:54;;;;;;;24.92;10.63;;;;;;;-1.08;64.59;99588.63;5096396;28;20568;-66
2021/01/17 09:14:32;;;;;;;21.80;9.30;;;;;;;-1.32;64.85;99596.75;5096389;28;20109;-66
2021/01/17 09:17:09;;;;;;;20.50;8.43;;;;;;;-1.24;65.39;99600.41;5096276;28;20109;-66
2021/01/17 09:19:41;;;;;;;21.42;9.45;;;;;;;-1.37;65.27;99594.88;5096097;28;20041;-66
2021/01/17 09:22:11;;;;;;;24.10;10.10;;;;;;;-1.47;65.54;99590.25;5096127;28;20446;-66
2021/01/17 09:24:43;;;;;;;20.75;10.43;;;;;;;-1.20;65.68;99598.09;5095962;28;20052;-67
2021/01/17 09:27:14;;;;;;;18.08;9.05;;;;;;;-0.97;65.65;99607.50;5095997;28;20568;-67
2021/01/17 09:29:54;;;;;;;20.52;9.48;;;;;;;-0.83;64.63;99605.56;5095657;28;20559;-68
2021/01/17 09:32:34;;;;;;;22.02;9.57;;;;;;;-0.40;64.75;99603.22;5096164;28;20105;-67
2021/01/17 09:35:06;;;;;;;20.00;8.30;;;;;;;-0.59;64.19;99610.75;5095755;28;20054;-67
2021/01/17 09:37:46;;;;;;;19.55;9.18;;;;;;;-0.43;64.20;99603.94;5095835;28;20048;-67
2021/01/17 09:40:15;;;;;;;20.75;9.68;;;;;;;-0.23;63.04;99600.59;5095566;28;20054;-68
2021/01/17 09:42:44;;;;;;;18.23;8.23;;;;;;;-0.03;62.86;99602.25;5094186;28;20506;-67
2021/01/17 09:45:20;;;;;;;20.30;8.73;;;;;;;0.14;61.93;99599.56;5095429;28;20048;-68
2021/01/17 09:47:51;;;;;;;13.57;7.50;;;;;;;0.11;60.53;99595.28;5095430;28;20052;-67
2021/01/17 09:50:23;;;;;;;11.65;5.93;;;;;;;0.18;60.94;99593.84;5095512;28;20058;-68
2021/01/17 09:53:05;;;;;;;12.98;5.90;;;;;;;0.36;60.74;99597.06;5095259;28;20097;-67
2021/01/17 09:55:33;;;;;;;12.88;6.60;;;;;;;0.34;59.92;99589.47;5095292;28;20074;-68
2021/01/17 09:58:14;;;;;;;15.52;7.13;;;;;;;0.52;59.81;99589.31;5095692;28;20037;-68
2021/01/17 10:00:53;;;;;;;12.48;6.03;;;;;;;0.50;59.42;99590.91;5095351;28;20048;-68
2021/01/17 10:03:27;;;;;;;11.50;5.90;;;;;;;0.85;59.47;99590.53;5095201;28;20051;-68
2021/01/17 10:05:57;;;;;;;11.90;5.75;;;;;;;0.80;58.20;99591.16;5095165;28;20059;-68
2021/01/17 10:08:31;;;;;;;12.15;5.32;;;;;;;0.63;57.50;99593.06;5095089;28;20119;-68
2021/01/17 10:11:00;;;;;;;10.68;5.65;;;;;;;0.45;57.66;99584.88;5094949;28;20081;-69
2021/01/17 10:13:47;;;;;;;14.25;5.88;;;;;;;0.59;57.65;99593.75;5095080;28;20063;-68
2021/01/17 10:16:22;;;;;;;11.90;5.63;;;;;;;0.56;56.84;99601.16;5094394;28;20485;-68
2021/01/17 10:18:53;;;;;;;11.98;5.45;;;;;;;0.59;57.13;99606.31;5084631;28;20474;-68
2021/01/17 10:21:38;;;;;;;13.98;6.00;;;;;;;0.47;56.23;99600.84;5083892;28;20063;-69
2021/01/17 10:24:08;;;;;;;10.85;4.65;;;;;;;0.64;55.49;99592.28;5082581;28;20493;-70
2021/01/17 10:26:38;;;;;;;7.82;3.92;;;;;;;0.68;53.73;99601.63;5092676;28;20152;-68
2021/01/17 10:29:09;;;;;;;11.40;5.10;;;;;;;0.70;53.73;99604.22;5094630;28;20123;-68
2021/01/17 10:31:41;;;;;;;10.45;4.57;;;;;;;0.80;53.96;99606.22;5094670;28;20066;-68
2021/01/17 10:34:32;;;;;;;9.40;4.22;;;;;;;0.85;52.77;99604.75;5094740;28;20051;-68
2021/01/17 10:37:07;;;;;;;10.77;4.97;;;;;;;0.59;52.67;99606.31;5094688;28;20093;-68
2021/01/17 10:39:42;;;;;;;8.68;3.63;;;;;;;0.74;52.92;99614.41;5094638;28;20051;-68
2021/01/17 10:42:14;;;;;;;11.38;4.68;;;;;;;0.60;53.15;99618.09;5094547;28;20133;-69
2021/01/17 10:44:52;;;;;;;11.65;4.88;;;;;;;0.59;53.22;99602.16;5094467;28;20056;-68
2021/01/17 10:47:35;;;;;;;9.25;4.20;;;;;;;0.83;52.38;99606.34;5094418;28;20510;-69
2021/01/17 10:50:07;;;;;;;11.40;4.68;;;;;;;0.68;52.48;99610.03;5094606;28;20074;-68
2021/01/17 10:52:46;;;;;;;10.98;4.32;;;;;;;0.92;52.68;99612.56;5094347;28;20094;-68
2021/01/17 10:55:23;;;;;;;7.95;4.32;;;;;;;0.99;51.87;99611.97;5094612;28;20117;-68
2021/01/17 10:58:04;;;;;;;9.75;4.40;;;;;;;0.89;51.61;99609.94;5094346;28;20087;-68
2021/01/17 11:00:34;;;;;;;10.32;5.22;;;;;;;1.00;51.74;99606.16;5094129;28;20044;-69
2021/01/17 11:03:05;;;;;;;10.95;4.88;;;;;;;1.10;50.96;99608.22;5094484;28;20131;-68
2021/01/17 11:05:34;;;;;;;7.55;4.43;;;;;;;1.06;50.82;99605.50;5094658;28;20114;-68
2021/01/17 11:08:12;;;;;;;9.77;5.15;;;;;;;1.20;50.77;99590.13;5094056;28;20421;-68
2021/01/17 11:10:57;;;;;;;10.25;4.72;;;;;;;1.30;50.42;99612.25;5094117;28;20454;-68
2021/01/17 11:13:36;;;;;;;10.60;4.50;;;;;;;1.34;50.33;99614.06;5094077;28;20120;-68
2021/01/17 11:16:04;;;;;;;10.13;4.20;;;;;;;1.22;49.75;99611.13;5093931;28;20494;-68
2021/01/17 11:18:32;;;;;;;8.57;4.25;;;;;;;1.37;49.92;99613.31;5075774;28;20079;-68
2021/01/17 11:21:07;;;;;;;10.18;4.10;;;;;;;1.23;48.36;99615.34;5093949;28;20048;-68
2021/01/17 11:23:51;;;;;;;8.13;3.78;;;;;;;1.26;48.98;99612.97;5093944;28;20044;-69
2021/01/17 11:26:24;;;;;;;8.82;3.92;;;;;;;1.03;48.28;99611.28;5093642;28;20053;-68
2021/01/17 11:29:06;;;;;;;8.70;4.10;;;;;;;1.11;48.50;99604.88;5093868;28;20458;-69
2021/01/17 11:31:44;;;;;;;8.75;3.97;;;;;;;1.25;48.12;99593.66;5093804;28;20052;-68
2021/01/17 11:34:22;;;;;;;11.15;4.72;;;;;;;1.64;48.42;99603.34;5094174;28;20044;-68
2021/01/17 11:36:57;;;;;;;8.05;4.00;;;;;;;1.29;47.42;99580.41;5093674;28;20116;-68
2021/01/17 11:39:36;;;;;;;10.02;4.40;;;;;;;1.57;47.98;99606.44;5093792;28;20505;-68
2021/01/17 11:42:05;;;;;;;10.73;5.07;;;;;;;1.41;47.61;99594.19;5093645;28;20062;-68
2021/01/17 11:44:40;;;;;;;13.13;5.13;;;;;;;1.25;47.26;99603.69;5093682;28;20059;-69
2021/01/17 11:47:18;;;;;;;10.82;4.45;;;;;;;1.34;47.73;99606.53;5093518;28;20511;-68
2021/01/17 11:49:54;;;;;;;10.57;4.85;;;;;;;1.28;46.77;99596.28;5093546;28;20036;-67
2021/01/17 11:52:22;;;;;;;9.90;4.60;;;;;;;1.66;46.56;99596.69;5093576;28;20048;-68
2021/01/17 11:55:07;;;;;;;10.05;3.88;;;;;;;1.80;45.97;99600.53;5093520;28;20174;-68
2021/01/17 11:57:35;;;;;;;10.85;4.18;;;;;;;1.77;46.13;99565.22;5093521;28;20063;-68
2021/01/17 12:00:15;;;;;;;9.88;4.50;;;;;;;2.00;46.45;99590.28;5093579;28;20123;-68